Fork, Maryland
Current Conditions -  °F | °C
As of 9:45 PM on Wednesday 26 Nov 2014 (Local Time) from KMTN Reporting Station
Scattered Clouds Scattered Clouds  
Wind Chill: 30°   Ceiling: Unl
Heat Index: 37°   Visibility: 10mi
Dew Point: 36°   Wind: 10mph
Humidity: 93%   Direction: 270°W
Pressure: 29.96"   Gusts: NA
Location:  39.47°N, 76.44°W
Report Text: KMTN 270245Z 27009KT 10SM SCT080 03/02 A2996 RMK LAST
Loading
Personal Weather Stations






























Interactive Weather Map New forecast layout! Learn more

10-Day Weather Forecast

Advertisements
Track Severe Weather on mobile